sensor_id;sensor_type;location;lat;lon;timestamp;pressure;altitude;pressure_sealevel;temperature;humidity
55733;BME280;41637;52.364;9.910;2022-12-05T00:00:32;101093.60;;;2.30;97.23
55733;BME280;41637;52.364;9.910;2022-12-05T00:03:03;101087.92;;;2.32;97.42
55733;BME280;41637;52.364;9.910;2022-12-05T00:05:30;101088.98;;;2.31;96.94
55733;BME280;41637;52.364;9.910;2022-12-05T00:07:56;101086.79;;;2.33;97.16
55733;BME280;41637;52.364;9.910;2022-12-05T00:10:23;101090.06;;;2.36;97.26
55733;BME280;41637;52.364;9.910;2022-12-05T00:12:49;101091.27;;;2.36;97.19
55733;BME280;41637;52.364;9.910;2022-12-05T00:15:16;101086.57;;;2.33;96.94
55733;BME280;41637;52.364;9.910;2022-12-05T00:17:42;101089.34;;;2.31;96.80
55733;BME280;41637;52.364;9.910;2022-12-05T00:20:09;101091.75;;;2.32;97.19
55733;BME280;41637;52.364;9.910;2022-12-05T00:22:36;101089.40;;;2.33;97.54
55733;BME280;41637;52.364;9.910;2022-12-05T00:25:07;101086.29;;;2.30;97.05
55733;BME280;41637;52.364;9.910;2022-12-05T00:27:33;101087.80;;;2.26;97.01
55733;BME280;41637;52.364;9.910;2022-12-05T00:30:00;101080.25;;;2.24;97.14
55733;BME280;41637;52.364;9.910;2022-12-05T00:32:28;101077.13;;;2.27;97.36
55733;BME280;41637;52.364;9.910;2022-12-05T00:34:55;101080.70;;;2.28;97.39
55733;BME280;41637;52.364;9.910;2022-12-05T00:37:22;101073.95;;;2.30;97.33
55733;BME280;41637;52.364;9.910;2022-12-05T00:39:48;101073.88;;;2.30;97.16
55733;BME280;41637;52.364;9.910;2022-12-05T00:42:15;101073.33;;;2.33;97.30
55733;BME280;41637;52.364;9.910;2022-12-05T00:44:41;101072.94;;;2.34;97.14
55733;BME280;41637;52.364;9.910;2022-12-05T00:47:08;101070.85;;;2.36;97.45
55733;BME280;41637;52.364;9.910;2022-12-05T00:49:34;101077.21;;;2.37;97.32
55733;BME280;41637;52.364;9.910;2022-12-05T00:52:01;101077.84;;;2.38;97.14
55733;BME280;41637;52.364;9.910;2022-12-05T00:54:27;101078.36;;;2.41;97.28
55733;BME280;41637;52.364;9.910;2022-12-05T00:56:54;101078.17;;;2.43;97.09
55733;BME280;41637;52.364;9.910;2022-12-05T00:59:23;101080.59;;;2.46;97.06
55733;BME280;41637;52.364;9.910;2022-12-05T01:01:50;101087.21;;;2.49;97.22
55733;BME280;41637;52.364;9.910;2022-12-05T01:04:22;101084.26;;;2.51;97.06
55733;BME280;41637;52.364;9.910;2022-12-05T01:06:52;101084.64;;;2.50;96.74
55733;BME280;41637;52.364;9.910;2022-12-05T01:09:19;101086.88;;;2.51;96.74
55733;BME280;41637;52.364;9.910;2022-12-05T01:11:46;101087.08;;;2.53;96.80
55733;BME280;41637;52.364;9.910;2022-12-05T01:14:14;101087.95;;;2.53;96.90
55733;BME280;41637;52.364;9.910;2022-12-05T01:16:43;101088.83;;;2.53;96.69
55733;BME280;41637;52.364;9.910;2022-12-05T01:19:13;101084.13;;;2.53;96.56
55733;BME280;41637;52.364;9.910;2022-12-05T01:21:40;101082.36;;;2.50;96.64
55733;BME280;41637;52.364;9.910;2022-12-05T01:24:08;101082.32;;;2.51;96.85
55733;BME280;41637;52.364;9.910;2022-12-05T01:26:35;101079.80;;;2.52;96.83
55733;BME280;41637;52.364;9.910;2022-12-05T01:29:02;101080.64;;;2.55;96.93
55733;BME280;41637;52.364;9.910;2022-12-05T01:31:31;101082.67;;;2.58;97.19
55733;BME280;41637;52.364;9.910;2022-12-05T01:34:00;101080.16;;;2.59;96.80
55733;BME280;41637;52.364;9.910;2022-12-05T01:36:27;101082.40;;;2.57;96.75
55733;BME280;41637;52.364;9.910;2022-12-05T01:38:54;101077.50;;;2.55;96.64
55733;BME280;41637;52.364;9.910;2022-12-05T01:41:24;101080.20;;;2.54;96.69
55733;BME280;41637;52.364;9.910;2022-12-05T01:46:43;101077.88;;;2.50;96.85
55733;BME280;41637;52.364;9.910;2022-12-05T01:49:14;101082.44;;;2.50;97.10
55733;BME280;41637;52.364;9.910;2022-12-05T01:51:47;101081.88;;;2.50;96.86
55733;BME280;41637;52.364;9.910;2022-12-05T01:54:16;101078.38;;;2.48;97.16
55733;BME280;41637;52.364;9.910;2022-12-05T01:56:47;101074.48;;;2.46;96.96
55733;BME280;41637;52.364;9.910;2022-12-05T01:59:15;101075.73;;;2.45;96.94
55733;BME280;41637;52.364;9.910;2022-12-05T02:01:43;101072.66;;;2.47;97.24
55733;BME280;41637;52.364;9.910;2022-12-05T02:04:10;101070.98;;;2.49;97.35
55733;BME280;41637;52.364;9.910;2022-12-05T02:06:36;101071.05;;;2.50;97.33
55733;BME280;41637;52.364;9.910;2022-12-05T02:09:03;101068.59;;;2.50;97.19
55733;BME280;41637;52.364;9.910;2022-12-05T02:11:30;101067.92;;;2.50;97.25
55733;BME280;41637;52.364;9.910;2022-12-05T02:30:58;101066.07;;;2.47;97.35
55733;BME280;41637;52.364;9.910;2022-12-05T02:33:44;101064.61;;;2.48;97.36
55733;BME280;41637;52.364;9.910;2022-12-05T02:36:25;101065.22;;;2.48;97.37
55733;BME280;41637;52.364;9.910;2022-12-05T02:42:04;101069.88;;;2.49;97.12
55733;BME280;41637;52.364;9.910;2022-12-05T02:44:43;101068.14;;;2.49;97.30
55733;BME280;41637;52.364;9.910;2022-12-05T02:47:13;101064.59;;;2.48;97.20
55733;BME280;41637;52.364;9.910;2022-12-05T02:49:43;101062.00;;;2.47;97.34
55733;BME280;41637;52.364;9.910;2022-12-05T02:52:13;101059.59;;;2.49;97.34
55733;BME280;41637;52.364;9.910;2022-12-05T02:54:43;101059.35;;;2.50;97.38
55733;BME280;41637;52.364;9.910;2022-12-05T02:57:12;101055.89;;;2.52;97.51
55733;BME280;41637;52.364;9.910;2022-12-05T02:59:40;101057.00;;;2.54;97.17
55733;BME280;41637;52.364;9.910;2022-12-05T03:02:27;101056.30;;;2.54;96.93
55733;BME280;41637;52.364;9.910;2022-12-05T03:05:08;101060.64;;;2.54;96.93
55733;BME280;41637;52.364;9.910;2022-12-05T03:07:40;101061.30;;;2.54;97.20
55733;BME280;41637;52.364;9.910;2022-12-05T03:10:10;101052.92;;;2.54;96.96
55733;BME280;41637;52.364;9.910;2022-12-05T03:12:43;101052.44;;;2.54;97.06
55733;BME280;41637;52.364;9.910;2022-12-05T03:15:16;101056.40;;;2.54;97.08
55733;BME280;41637;52.364;9.910;2022-12-05T03:17:50;101058.83;;;2.55;97.05
55733;BME280;41637;52.364;9.910;2022-12-05T03:20:26;101058.37;;;2.56;97.36
55733;BME280;41637;52.364;9.910;2022-12-05T03:23:07;101061.00;;;2.56;97.25
55733;BME280;41637;52.364;9.910;2022-12-05T03:26:15;101061.87;;;2.56;97.19
55733;BME280;41637;52.364;9.910;2022-12-05T03:31:36;101062.45;;;2.53;97.14
55733;BME280;41637;52.364;9.910;2022-12-05T03:34:07;101062.51;;;2.52;97.25
55733;BME280;41637;52.364;9.910;2022-12-05T03:36:38;101060.73;;;2.53;97.40
55733;BME280;41637;52.364;9.910;2022-12-05T03:39:25;101057.05;;;2.53;97.39
55733;BME280;41637;52.364;9.910;2022-12-05T03:42:08;101056.53;;;2.53;97.39
55733;BME280;41637;52.364;9.910;2022-12-05T03:44:45;101058.91;;;2.53;97.48
55733;BME280;41637;52.364;9.910;2022-12-05T03:47:31;101060.36;;;2.53;97.22
55733;BME280;41637;52.364;9.910;2022-12-05T03:50:09;101058.19;;;2.54;97.42
55733;BME280;41637;52.364;9.910;2022-12-05T03:52:45;101058.56;;;2.54;97.54
55733;BME280;41637;52.364;9.910;2022-12-05T03:55:35;101055.02;;;2.52;97.23
55733;BME280;41637;52.364;9.910;2022-12-05T03:58:16;101057.87;;;2.51;97.55
55733;BME280;41637;52.364;9.910;2022-12-05T04:00:47;101051.95;;;2.51;97.41
55733;BME280;41637;52.364;9.910;2022-12-05T04:03:21;101051.78;;;2.51;97.23
55733;BME280;41637;52.364;9.910;2022-12-05T04:05:54;101055.05;;;2.51;97.65
55733;BME280;41637;52.364;9.910;2022-12-05T04:08:25;101056.68;;;2.53;97.40
55733;BME280;41637;52.364;9.910;2022-12-05T04:10:56;101057.91;;;2.53;97.09
55733;BME280;41637;52.364;9.910;2022-12-05T04:13:49;101054.21;;;2.54;97.48
55733;BME280;41637;52.364;9.910;2022-12-05T04:16:38;101050.62;;;2.52;97.47
55733;BME280;41637;52.364;9.910;2022-12-05T04:19:37;101050.63;;;2.50;97.22
55733;BME280;41637;52.364;9.910;2022-12-05T04:22:24;101042.77;;;2.50;97.37
55733;BME280;41637;52.364;9.910;2022-12-05T04:24:53;101047.08;;;2.53;97.66
55733;BME280;41637;52.364;9.910;2022-12-05T04:27:50;101051.11;;;2.55;97.39
55733;BME280;41637;52.364;9.910;2022-12-05T04:30:22;101048.66;;;2.58;97.67
55733;BME280;41637;52.364;9.910;2022-12-05T04:35:31;101044.88;;;2.61;97.26
55733;BME280;41637;52.364;9.910;2022-12-05T04:38:08;101038.30;;;2.63;97.27
55733;BME280;41637;52.364;9.910;2022-12-05T04:40:40;101039.83;;;2.63;97.12
55733;BME280;41637;52.364;9.910;2022-12-05T04:43:10;101042.41;;;2.64;97.01
55733;BME280;41637;52.364;9.910;2022-12-05T04:45:39;101044.95;;;2.63;97.09
55733;BME280;41637;52.364;9.910;2022-12-05T04:48:11;101043.40;;;2.63;96.81
55733;BME280;41637;52.364;9.910;2022-12-05T04:50:41;101046.66;;;2.61;97.05
55733;BME280;41637;52.364;9.910;2022-12-05T04:53:10;101049.52;;;2.60;96.93
55733;BME280;41637;52.364;9.910;2022-12-05T04:55:40;101045.70;;;2.60;97.22
55733;BME280;41637;52.364;9.910;2022-12-05T04:58:10;101045.77;;;2.57;97.07
55733;BME280;41637;52.364;9.910;2022-12-05T05:00:59;101041.89;;;2.55;96.72
55733;BME280;41637;52.364;9.910;2022-12-05T05:03:33;101045.21;;;2.57;97.47
55733;BME280;41637;52.364;9.910;2022-12-05T05:06:02;101038.95;;;2.57;97.30
55733;BME280;41637;52.364;9.910;2022-12-05T05:08:29;101042.58;;;2.57;97.48
55733;BME280;41637;52.364;9.910;2022-12-05T05:11:14;101042.09;;;2.56;96.98
55733;BME280;41637;52.364;9.910;2022-12-05T05:13:41;101042.53;;;2.58;97.32
55733;BME280;41637;52.364;9.910;2022-12-05T05:16:12;101041.51;;;2.58;96.98
55733;BME280;41637;52.364;9.910;2022-12-05T05:18:39;101050.02;;;2.56;97.09
55733;BME280;41637;52.364;9.910;2022-12-05T05:21:05;101049.96;;;2.54;96.88
55733;BME280;41637;52.364;9.910;2022-12-05T05:23:32;101050.73;;;2.53;97.18
55733;BME280;41637;52.364;9.910;2022-12-05T05:25:58;101052.34;;;2.53;97.10
55733;BME280;41637;52.364;9.910;2022-12-05T05:28:25;101055.13;;;2.51;96.98
55733;BME280;41637;52.364;9.910;2022-12-05T05:30:51;101054.23;;;2.49;97.14
55733;BME280;41637;52.364;9.910;2022-12-05T05:33:17;101056.98;;;2.47;97.23
55733;BME280;41637;52.364;9.910;2022-12-05T05:35:44;101054.89;;;2.44;97.11
55733;BME280;41637;52.364;9.910;2022-12-05T05:38:10;101052.36;;;2.43;97.20
55733;BME280;41637;52.364;9.910;2022-12-05T05:40:37;101054.84;;;2.42;97.55
55733;BME280;41637;52.364;9.910;2022-12-05T05:43:03;101056.52;;;2.41;97.53
55733;BME280;41637;52.364;9.910;2022-12-05T05:45:30;101055.46;;;2.39;97.67
55733;BME280;41637;52.364;9.910;2022-12-05T05:47:59;101057.06;;;2.38;97.76
55733;BME280;41637;52.364;9.910;2022-12-05T05:50:26;101056.63;;;2.39;97.55
55733;BME280;41637;52.364;9.910;2022-12-05T05:52:52;101056.98;;;2.39;97.82
55733;BME280;41637;52.364;9.910;2022-12-05T05:55:19;101061.54;;;2.39;97.65
55733;BME280;41637;52.364;9.910;2022-12-05T05:57:45;101061.04;;;2.39;97.77
55733;BME280;41637;52.364;9.910;2022-12-05T06:00:12;101065.23;;;2.39;97.69
55733;BME280;41637;52.364;9.910;2022-12-05T06:02:39;101060.09;;;2.40;97.82
55733;BME280;41637;52.364;9.910;2022-12-05T06:05:06;101060.45;;;2.40;97.64
55733;BME280;41637;52.364;9.910;2022-12-05T06:07:33;101057.73;;;2.39;97.76
55733;BME280;41637;52.364;9.910;2022-12-05T06:09:59;101054.99;;;2.38;97.57
55733;BME280;41637;52.364;9.910;2022-12-05T06:12:26;101053.76;;;2.38;97.67
55733;BME280;41637;52.364;9.910;2022-12-05T06:14:53;101053.76;;;2.40;97.89
55733;BME280;41637;52.364;9.910;2022-12-05T06:17:19;101050.65;;;2.42;97.74
55733;BME280;41637;52.364;9.910;2022-12-05T06:19:46;101052.33;;;2.41;97.18
55733;BME280;41637;52.364;9.910;2022-12-05T06:22:12;101053.95;;;2.38;97.23
55733;BME280;41637;52.364;9.910;2022-12-05T06:24:39;101055.10;;;2.36;97.39
55733;BME280;41637;52.364;9.910;2022-12-05T06:27:05;101055.34;;;2.33;96.98
55733;BME280;41637;52.364;9.910;2022-12-05T06:29:33;101061.66;;;2.30;96.88
55733;BME280;41637;52.364;9.910;2022-12-05T06:32:01;101056.86;;;2.27;97.15
55733;BME280;41637;52.364;9.910;2022-12-05T06:34:28;101058.29;;;2.27;96.96
55733;BME280;41637;52.364;9.910;2022-12-05T06:36:54;101062.23;;;2.25;96.79
55733;BME280;41637;52.364;9.910;2022-12-05T06:39:20;101060.20;;;2.24;96.85
55733;BME280;41637;52.364;9.910;2022-12-05T06:41:47;101059.92;;;2.21;96.36
55733;BME280;41637;52.364;9.910;2022-12-05T06:44:13;101062.30;;;2.17;96.48
55733;BME280;41637;52.364;9.910;2022-12-05T06:46:40;101065.02;;;2.13;96.38
55733;BME280;41637;52.364;9.910;2022-12-05T06:49:09;101066.92;;;2.11;96.33
55733;BME280;41637;52.364;9.910;2022-12-05T06:51:35;101066.05;;;2.08;96.32
55733;BME280;41637;52.364;9.910;2022-12-05T06:54:02;101067.97;;;2.08;96.47
55733;BME280;41637;52.364;9.910;2022-12-05T06:56:28;101074.34;;;2.10;96.59
55733;BME280;41637;52.364;9.910;2022-12-05T06:58:55;101076.02;;;2.08;96.39
55733;BME280;41637;52.364;9.910;2022-12-05T07:01:22;101079.89;;;2.10;96.62
55733;BME280;41637;52.364;9.910;2022-12-05T07:04:13;101083.06;;;2.12;96.61
55733;BME280;41637;52.364;9.910;2022-12-05T07:06:42;101083.73;;;2.15;97.00
55733;BME280;41637;52.364;9.910;2022-12-05T07:09:17;101085.88;;;2.19;96.69
55733;BME280;41637;52.364;9.910;2022-12-05T07:11:48;101084.26;;;2.22;96.64
55733;BME280;41637;52.364;9.910;2022-12-05T07:14:15;101085.98;;;2.25;96.62
55733;BME280;41637;52.364;9.910;2022-12-05T07:17:02;101087.44;;;2.26;96.58
55733;BME280;41637;52.364;9.910;2022-12-05T07:19:29;101094.23;;;2.29;96.40
55733;BME280;41637;52.364;9.910;2022-12-05T07:21:55;101091.86;;;2.28;96.12
55733;BME280;41637;52.364;9.910;2022-12-05T07:24:22;101089.77;;;2.28;96.07
55733;BME280;41637;52.364;9.910;2022-12-05T07:26:48;101090.10;;;2.28;96.06
55733;BME280;41637;52.364;9.910;2022-12-05T07:29:14;101086.13;;;2.28;95.99
55733;BME280;41637;52.364;9.910;2022-12-05T07:31:41;101088.51;;;2.26;95.81
55733;BME280;41637;52.364;9.910;2022-12-05T07:34:07;101093.86;;;2.27;96.01
55733;BME280;41637;52.364;9.910;2022-12-05T07:36:34;101094.61;;;2.28;95.82
55733;BME280;41637;52.364;9.910;2022-12-05T07:39:02;101095.60;;;2.29;95.83
55733;BME280;41637;52.364;9.910;2022-12-05T07:41:31;101093.64;;;2.28;95.44
55733;BME280;41637;52.364;9.910;2022-12-05T07:43:59;101100.36;;;2.26;95.33
55733;BME280;41637;52.364;9.910;2022-12-05T07:46:27;101097.77;;;2.26;95.57
55733;BME280;41637;52.364;9.910;2022-12-05T07:48:54;101098.41;;;2.27;95.51
55733;BME280;41637;52.364;9.910;2022-12-05T07:51:21;101097.10;;;2.26;95.19
55733;BME280;41637;52.364;9.910;2022-12-05T07:53:47;101097.55;;;2.26;95.48
55733;BME280;41637;52.364;9.910;2022-12-05T07:56:16;101100.26;;;2.28;95.36
55733;BME280;41637;52.364;9.910;2022-12-05T07:58:45;101103.79;;;2.27;95.09
55733;BME280;41637;52.364;9.910;2022-12-05T08:01:14;101101.23;;;2.29;95.14
55733;BME280;41637;52.364;9.910;2022-12-05T08:03:41;101102.66;;;2.28;94.93
55733;BME280;41637;52.364;9.910;2022-12-05T08:06:11;101103.23;;;2.30;95.06
55733;BME280;41637;52.364;9.910;2022-12-05T08:08:37;101103.27;;;2.29;95.28
55733;BME280;41637;52.364;9.910;2022-12-05T08:11:10;101105.94;;;2.29;94.75
55733;BME280;41637;52.364;9.910;2022-12-05T08:13:37;101109.41;;;2.27;94.90
55733;BME280;41637;52.364;9.910;2022-12-05T08:16:06;101112.01;;;2.24;95.03
55733;BME280;41637;52.364;9.910;2022-12-05T08:18:33;101111.04;;;2.23;94.88
55733;BME280;41637;52.364;9.910;2022-12-05T08:21:07;101107.64;;;2.22;94.90
55733;BME280;41637;52.364;9.910;2022-12-05T08:23:35;101109.55;;;2.22;95.05
55733;BME280;41637;52.364;9.910;2022-12-05T08:26:08;101107.62;;;2.22;95.03
55733;BME280;41637;52.364;9.910;2022-12-05T08:28:35;101109.58;;;2.22;94.95
55733;BME280;41637;52.364;9.910;2022-12-05T08:31:08;101112.77;;;2.21;95.08
55733;BME280;41637;52.364;9.910;2022-12-05T08:33:35;101114.82;;;2.22;94.91
55733;BME280;41637;52.364;9.910;2022-12-05T08:36:03;101121.44;;;2.24;95.21
55733;BME280;41637;52.364;9.910;2022-12-05T08:38:30;101118.14;;;2.26;95.10
55733;BME280;41637;52.364;9.910;2022-12-05T08:41:02;101123.29;;;2.28;94.98
55733;BME280;41637;52.364;9.910;2022-12-05T08:43:30;101123.27;;;2.30;94.92
55733;BME280;41637;52.364;9.910;2022-12-05T08:45:56;101118.89;;;2.33;95.09
55733;BME280;41637;52.364;9.910;2022-12-05T08:48:24;101121.08;;;2.39;95.40
55733;BME280;41637;52.364;9.910;2022-12-05T08:50:55;101119.31;;;2.41;95.14
55733;BME280;41637;52.364;9.910;2022-12-05T08:53:22;101118.45;;;2.44;95.03
55733;BME280;41637;52.364;9.910;2022-12-05T08:55:48;101119.75;;;2.50;95.10
55733;BME280;41637;52.364;9.910;2022-12-05T08:58:14;101119.84;;;2.56;95.27
55733;BME280;41637;52.364;9.910;2022-12-05T09:00:41;101118.64;;;2.63;95.06
55733;BME280;41637;52.364;9.910;2022-12-05T09:03:09;101119.86;;;2.68;94.97
55733;BME280;41637;52.364;9.910;2022-12-05T09:05:36;101119.88;;;2.72;94.87
55733;BME280;41637;52.364;9.910;2022-12-05T09:08:03;101119.20;;;2.76;94.92
55733;BME280;41637;52.364;9.910;2022-12-05T09:10:30;101122.46;;;2.79;94.62
55733;BME280;41637;52.364;9.910;2022-12-05T09:12:56;101123.13;;;2.80;94.37
55733;BME280;41637;52.364;9.910;2022-12-05T09:15:23;101121.31;;;2.81;94.36
55733;BME280;41637;52.364;9.910;2022-12-05T09:17:49;101122.05;;;2.82;94.48
55733;BME280;41637;52.364;9.910;2022-12-05T09:20:16;101125.82;;;2.84;94.22
55733;BME280;41637;52.364;9.910;2022-12-05T09:22:43;101126.45;;;2.85;94.03
55733;BME280;41637;52.364;9.910;2022-12-05T09:25:09;101123.28;;;2.85;94.11
55733;BME280;41637;52.364;9.910;2022-12-05T09:27:36;101126.11;;;2.87;93.93
55733;BME280;41637;52.364;9.910;2022-12-05T09:30:04;101122.41;;;2.90;93.68
55733;BME280;41637;52.364;9.910;2022-12-05T09:32:31;101116.10;;;2.90;93.36
55733;BME280;41637;52.364;9.910;2022-12-05T09:34:58;101118.27;;;2.92;93.24
55733;BME280;41637;52.364;9.910;2022-12-05T09:37:25;101126.42;;;2.95;93.64
55733;BME280;41637;52.364;9.910;2022-12-05T09:40:14;101122.70;;;2.98;93.09
55733;BME280;41637;52.364;9.910;2022-12-05T09:43:04;101119.56;;;2.95;92.72
55733;BME280;41637;52.364;9.910;2022-12-05T09:45:36;101121.57;;;2.96;93.19
55733;BME280;41637;52.364;9.910;2022-12-05T09:48:10;101119.11;;;2.97;92.91
55733;BME280;41637;52.364;9.910;2022-12-05T09:50:45;101124.91;;;2.94;92.51
55733;BME280;41637;52.364;9.910;2022-12-05T09:53:29;101119.39;;;2.90;92.47
55733;BME280;41637;52.364;9.910;2022-12-05T09:58:47;101117.94;;;2.94;92.83
55733;BME280;41637;52.364;9.910;2022-12-05T10:07:02;101115.14;;;2.98;92.85
55733;BME280;41637;52.364;9.910;2022-12-05T10:15:12;101110.08;;;3.03;92.39
55733;BME280;41637;52.364;9.910;2022-12-05T10:17:47;101104.67;;;3.05;92.33
55733;BME280;41637;52.364;9.910;2022-12-05T10:20:33;101105.89;;;3.07;92.12
55733;BME280;41637;52.364;9.910;2022-12-05T10:23:10;101103.59;;;3.12;92.47
55733;BME280;41637;52.364;9.910;2022-12-05T10:26:00;101106.25;;;3.19;92.13
55733;BME280;41637;52.364;9.910;2022-12-05T10:28:35;101103.75;;;3.19;91.87
55733;BME280;41637;52.364;9.910;2022-12-05T10:31:09;101106.13;;;3.20;91.80
55733;BME280;41637;52.364;9.910;2022-12-05T10:33:42;101108.58;;;3.20;91.67
55733;BME280;41637;52.364;9.910;2022-12-05T10:36:11;101110.58;;;3.21;91.59
55733;BME280;41637;52.364;9.910;2022-12-05T10:38:39;101108.58;;;3.22;91.69
55733;BME280;41637;52.364;9.910;2022-12-05T10:41:09;101110.02;;;3.24;91.68
55733;BME280;41637;52.364;9.910;2022-12-05T10:43:40;101110.23;;;3.24;91.43
55733;BME280;41637;52.364;9.910;2022-12-05T10:46:09;101108.69;;;3.23;91.25
55733;BME280;41637;52.364;9.910;2022-12-05T10:48:42;101106.94;;;3.21;91.09
55733;BME280;41637;52.364;9.910;2022-12-05T10:51:15;101106.23;;;3.17;91.04
55733;BME280;41637;52.364;9.910;2022-12-05T10:53:48;101104.64;;;3.10;90.68
55733;BME280;41637;52.364;9.910;2022-12-05T10:56:42;101099.84;;;3.06;91.17
55733;BME280;41637;52.364;9.910;2022-12-05T10:59:12;101097.77;;;3.02;90.96
55733;BME280;41637;52.364;9.910;2022-12-05T11:01:45;101093.73;;;2.99;91.28
55733;BME280;41637;52.364;9.910;2022-12-05T11:04:19;101094.32;;;3.01;91.45
55733;BME280;41637;52.364;9.910;2022-12-05T11:06:57;101091.02;;;3.01;91.61
55733;BME280;41637;52.364;9.910;2022-12-05T11:09:32;101090.73;;;3.00;91.39
55733;BME280;41637;52.364;9.910;2022-12-05T11:14:34;101093.55;;;3.00;91.65
55733;BME280;41637;52.364;9.910;2022-12-05T11:17:03;101092.84;;;3.00;91.43
55733;BME280;41637;52.364;9.910;2022-12-05T11:21:57;101091.36;;;2.98;91.57
55733;BME280;41637;52.364;9.910;2022-12-05T11:24:31;101091.93;;;2.98;91.70
55733;BME280;41637;52.364;9.910;2022-12-05T11:27:18;101088.36;;;2.97;91.62
55733;BME280;41637;52.364;9.910;2022-12-05T11:29:56;101087.13;;;2.99;91.95
55733;BME280;41637;52.364;9.910;2022-12-05T11:32:29;101086.91;;;3.00;91.88
55733;BME280;41637;52.364;9.910;2022-12-05T11:35:21;101086.93;;;2.97;91.60
55733;BME280;41637;52.364;9.910;2022-12-05T11:37:56;101080.83;;;2.95;91.78
55733;BME280;41637;52.364;9.910;2022-12-05T11:45:58;101076.61;;;2.97;92.04
55733;BME280;41637;52.364;9.910;2022-12-05T11:54:29;101075.24;;;2.96;91.38
55733;BME280;41637;52.364;9.910;2022-12-05T11:57:45;101077.72;;;2.90;91.35
55733;BME280;41637;52.364;9.910;2022-12-05T12:00:36;101075.04;;;2.90;92.02
55733;BME280;41637;52.364;9.910;2022-12-05T12:11:31;101077.52;;;2.97;91.50
55733;BME280;41637;52.364;9.910;2022-12-05T12:14:31;101073.17;;;2.92;91.33
55733;BME280;41637;52.364;9.910;2022-12-05T12:17:37;101070.92;;;2.89;91.56
55733;BME280;41637;52.364;9.910;2022-12-05T12:23:35;101070.02;;;2.96;92.02
55733;BME280;41637;52.364;9.910;2022-12-05T12:28:45;101073.85;;;3.06;92.04
55733;BME280;41637;52.364;9.910;2022-12-05T12:37:12;101076.41;;;3.18;91.54
55733;BME280;41637;52.364;9.910;2022-12-05T12:42:46;101071.65;;;3.21;91.20
55733;BME280;41637;52.364;9.910;2022-12-05T12:45:48;101070.89;;;3.21;91.14
55733;BME280;41637;52.364;9.910;2022-12-05T12:51:02;101063.98;;;3.18;90.81
55733;BME280;41637;52.364;9.910;2022-12-05T12:56:36;101061.61;;;3.20;90.90
55733;BME280;41637;52.364;9.910;2022-12-05T13:04:57;101060.89;;;3.20;91.02
55733;BME280;41637;52.364;9.910;2022-12-05T13:07:38;101060.72;;;3.24;91.14
55733;BME280;41637;52.364;9.910;2022-12-05T13:10:26;101058.84;;;3.26;91.06
55733;BME280;41637;52.364;9.910;2022-12-05T13:12:56;101057.58;;;3.24;90.53
55733;BME280;41637;52.364;9.910;2022-12-05T13:15:30;101059.40;;;3.25;90.78
55733;BME280;41637;52.364;9.910;2022-12-05T13:17:59;101054.55;;;3.25;90.64
55733;BME280;41637;52.364;9.910;2022-12-05T13:20:29;101061.66;;;3.23;90.54
55733;BME280;41637;52.364;9.910;2022-12-05T13:22:58;101061.33;;;3.21;90.38
55733;BME280;41637;52.364;9.910;2022-12-05T13:25:35;101058.84;;;3.15;90.11
55733;BME280;41637;52.364;9.910;2022-12-05T13:28:08;101059.62;;;3.12;90.29
55733;BME280;41637;52.364;9.910;2022-12-05T13:30:48;101060.21;;;3.06;90.53
55733;BME280;41637;52.364;9.910;2022-12-05T13:33:32;101063.77;;;3.03;90.76
55733;BME280;41637;52.364;9.910;2022-12-05T13:36:06;101069.05;;;3.00;90.72
55733;BME280;41637;52.364;9.910;2022-12-05T13:39:06;101069.47;;;2.99;90.99
55733;BME280;41637;52.364;9.910;2022-12-05T13:43:49;101069.28;;;3.02;91.20
55733;BME280;41637;52.364;9.910;2022-12-05T13:46:34;101070.77;;;3.00;91.43
55733;BME280;41637;52.364;9.910;2022-12-05T13:49:04;101070.08;;;3.03;91.20
55733;BME280;41637;52.364;9.910;2022-12-05T13:51:36;101071.23;;;3.04;91.17
55733;BME280;41637;52.364;9.910;2022-12-05T13:54:16;101071.04;;;3.04;91.32
55733;BME280;41637;52.364;9.910;2022-12-05T14:07:44;101079.91;;;3.13;90.82
55733;BME280;41637;52.364;9.910;2022-12-05T14:15:50;101076.06;;;3.09;90.92
55733;BME280;41637;52.364;9.910;2022-12-05T14:21:23;101078.57;;;3.11;91.14
55733;BME280;41637;52.364;9.910;2022-12-05T14:24:15;101075.95;;;3.08;90.89
55733;BME280;41637;52.364;9.910;2022-12-05T14:27:03;101072.73;;;3.04;90.61
55733;BME280;41637;52.364;9.910;2022-12-05T14:32:34;101064.67;;;3.07;91.16
55733;BME280;41637;52.364;9.910;2022-12-05T14:35:18;101064.14;;;3.07;90.65
55733;BME280;41637;52.364;9.910;2022-12-05T14:37:57;101065.77;;;3.04;90.60
55733;BME280;41637;52.364;9.910;2022-12-05T14:43:17;101069.21;;;3.00;90.71
55733;BME280;41637;52.364;9.910;2022-12-05T14:45:58;101068.58;;;2.99;90.69
55733;BME280;41637;52.364;9.910;2022-12-05T14:48:41;101066.77;;;2.98;90.86
55733;BME280;41637;52.364;9.910;2022-12-05T14:54:05;101066.13;;;2.97;91.07
55733;BME280;41637;52.364;9.910;2022-12-05T14:56:39;101068.84;;;2.96;90.85
55733;BME280;41637;52.364;9.910;2022-12-05T15:01:49;101076.42;;;2.88;90.86
55733;BME280;41637;52.364;9.910;2022-12-05T15:09:57;101079.86;;;2.81;91.32
55733;BME280;41637;52.364;9.910;2022-12-05T15:20:36;101076.41;;;2.83;91.42
55733;BME280;41637;52.364;9.910;2022-12-05T15:26:05;101078.80;;;2.86;91.65
55733;BME280;41637;52.364;9.910;2022-12-05T15:29:03;101081.20;;;2.84;91.66
55733;BME280;41637;52.364;9.910;2022-12-05T15:31:32;101088.60;;;2.81;91.50
55733;BME280;41637;52.364;9.910;2022-12-05T15:34:10;101091.64;;;2.78;91.59
55733;BME280;41637;52.364;9.910;2022-12-05T15:36:44;101096.19;;;2.76;91.44
55733;BME280;41637;52.364;9.910;2022-12-05T15:39:22;101100.08;;;2.75;91.91
55733;BME280;41637;52.364;9.910;2022-12-05T15:41:52;101097.53;;;2.77;92.20
55733;BME280;41637;52.364;9.910;2022-12-05T15:44:20;101098.04;;;2.77;92.08
55733;BME280;41637;52.364;9.910;2022-12-05T15:46:54;101097.05;;;2.76;92.11
55733;BME280;41637;52.364;9.910;2022-12-05T15:49:24;101093.98;;;2.77;92.13